Terminal Aerodrome Forecast
Issued by NWS Albany, NY

Home | Current Version | Previous Version | Text Only | Print | Product List | Glossary On
Versions: 1 2 3 4 5 6 7 8 9 10 11 12 13 14 15 16 17 18 19 20
000
FTUS41 KALY 281957 AAA
TAFALB
TAF AMD
KALB 281957Z 2820/2918 VRB06KT P6SM VCSH SCT050
     FM282100 VRB06KT P6SM SCT050
     FM290100 00000KT P6SM SKC
     FM290900 00000KT 3SM BR FEW005
     FM291400 18005KT P6SM SCT050=

USA.gov is the U.S. government's official web portal to all federal, state and local government web resources and services.